Home   Weather   Switzerland   Köniz   Past weeks
Flag for Switzerland

Past Weather in Köniz, Bern, Switzerland — Yesterday and Last 2 Weeks

Currently: 86 °F. Passing clouds. (Weather station: Bern / Belp, Switzerland). See more current weather

Past Weather in Köniz — Graph

°F

Köniz Temperature Yesterday

Maximum temperature yesterday: 84 °F (at 5:50 pm)
Minimum temperature yesterday: 48 °F (at 5:50 am)
Average temperature yesterday: 67 °F

High & Low Weather Summary for the Past Weeks

 TemperatureHumidityPressure
High84 °F (Jun 14, 5:50 pm)100% (Jun 1, 1:50 am)30.27 "Hg (Jun 1, 1:50 am)
Low41 °F (Jun 1, 5:50 am)27% (Jun 15, 2:20 pm)29.89 "Hg (Jun 1, 5:50 pm)
Average64 °F77%30.14 "Hg
* Reported May 31 2:20 pm — Jun 15 2:50 pm, Köniz. Weather by CustomWeather, © 2021

Note: Actual official high and low records may vary slightly from our data, if they occured in-between our weather recording intervals... More about our weather records

Köniz Weather History for the Previous 24 Hours

Scroll right to see more
 ConditionsComfort  
Time TempWeatherWind HumidityBarometerVisibility
2:50 pm
Tue, Jun 15
84 °FSunny.6 mph31%30.09 "Hg10 mi
2:20 pm84 °FPassing clouds.6 mph27%30.09 "HgN/A
1:50 pm82 °FSunny.9 mph37%30.09 "Hg10 mi
1:20 pm82 °FSunny.7 mph42%30.09 "Hg10 mi
12:50 pm81 °FSunny.3 mph45%30.09 "Hg10 mi
12:20 pm79 °FSunny.5 mph42%30.09 "Hg10 mi
11:50 am79 °FPassing clouds.5 mph42%30.09 "HgN/A
11:20 am77 °FPassing clouds.7 mph51%30.09 "HgN/A
10:50 am75 °FPassing clouds.5 mph54%30.09 "HgN/A
10:20 am73 °FSunny.2 mph61%30.09 "Hg10 mi
9:50 am70 °FSunny.2 mph69%30.09 "Hg10 mi
9:20 am68 °FSunny.1 mph69%30.12 "Hg10 mi
8:50 am68 °FSunny.2 mph69%30.09 "Hg10 mi
8:20 am64 °FSunny.1 mph78%30.09 "Hg10 mi
7:50 am61 °FSunny.2 mph83%30.12 "Hg10 mi
7:20 am59 °FSunny.5 mph88%30.09 "Hg10 mi
6:50 am54 °FSunny.1 mph94%30.09 "Hg10 mi
6:20 am52 °FLight fog.3 mph94%30.09 "HgN/A
5:50 am50 °FLight fog.No wind100%30.09 "HgN/A
5:20 am50 °FClear.No wind100%30.09 "Hg10 mi
4:50 am52 °FClear.1 mph94%30.09 "Hg10 mi
4:20 am52 °FClear.1 mph94%30.09 "Hg10 mi
3:50 am52 °FClear.1 mph94%30.09 "Hg10 mi
3:20 am54 °FClear.2 mph94%30.09 "Hg10 mi
2:50 am54 °FClear.No wind94%30.09 "Hg10 mi
2:20 am54 °FClear.2 mph94%30.09 "Hg10 mi
1:50 am55 °FClear.1 mph94%30.09 "Hg10 mi
1:20 am55 °FClear.2 mph94%30.09 "Hg10 mi
12:50 am55 °FClear.1 mph94%30.09 "Hg10 mi
12:20 am57 °FClear.No wind88%30.09 "Hg10 mi
11:50 pm
Mon, Jun 14
57 °FClear.1 mph88%30.09 "Hg10 mi
11:20 pm61 °FClear.1 mph77%30.09 "Hg10 mi
10:50 pm61 °FClear.1 mph83%30.09 "Hg10 mi
10:20 pm63 °FClear.2 mph77%30.09 "Hg10 mi
9:50 pm68 °FClear.2 mph64%30.09 "Hg10 mi
9:20 pm70 °FSunny.2 mph57%30.09 "Hg10 mi
8:50 pm77 °FSunny.2 mph39%30.07 "Hg10 mi
8:20 pm79 °FSunny.2 mph37%30.07 "Hg10 mi
7:50 pm81 °FPassing clouds.5 mph34%30.07 "HgN/A
7:20 pm82 °FPassing clouds.6 mph32%30.07 "HgN/A
6:50 pm82 °FPassing clouds.5 mph35%30.07 "HgN/A
6:20 pm82 °FPassing clouds.3 mph35%30.07 "HgN/A
5:50 pm84 °FSunny.3 mph35%30.07 "Hg10 mi
5:20 pm82 °FPassing clouds.7 mph37%30.07 "HgN/A
4:50 pm82 °FPassing clouds.9 mph42%30.09 "HgN/A
4:20 pm82 °FPassing clouds.7 mph42%30.09 "HgN/A
Weather by CustomWeather, © 2021

See weather overview